Youngsville, New Mexico
Current Conditions -  °F | °C
As of 1:35 AM on Wednesday 26 Nov 2014 (Local Time) from KLAM Reporting Station
Clear Clear  
Wind Chill: -1°   Ceiling: Unl
Heat Index: -1°   Visibility: 10mi
Dew Point: -12°   Wind: 0mph
Humidity: 44%   Direction: NA
Pressure: 30.28"   Gusts: NA
Location:  36.19°N, 106.56°W
Report Text: KLAM 260835Z AUTO 00000KT 10SM CLR M01/M12 A3028 RMK AO2 T10101118
Loading
Personal Weather Stations






























Interactive Weather Map New forecast layout! Learn more

10-Day Weather Forecast

Advertisements
Track Severe Weather on mobile